• location
  • image
mod_vvisit_countermod_vvisit_countermod_vvisit_countermod_vvisit_countermod_vvisit_countermod_vvisit_countermod_vvisit_counter
mod_vvisit_counterToday222
mod_vvisit_counterYesterday479
mod_vvisit_counterThis week222
mod_vvisit_counterLast week4472
mod_vvisit_counterThis month6050
mod_vvisit_counterLast month17680
mod_vvisit_counterAll days1031962

We have: 5 guests online
Your IP: 54.226.36.60
 , 
Today: Dec 10, 2018
Airport / Information for passengers / Passenger terminal

Passenger terminal

 

The address of the passenger terminal:

Siauliai International Airport

Lakunu str. 4, LT-77103 Siauliai, Lithuania

 

The services provided:

 

- Customs services

- State Border Guard services

- Aviation security services

- Cafe

 

atvykimas atvykimas2 isvykimas isvykimas2

 

kavine kavine1 kavine2 terminalas terminalas2

Today

Monday, 10 December 2018

Aviation Weather Forecast

[source: ADDS]
METAR
EYSA 100420Z 21007KT 1100 0900NW R14L/1100N BR PRFG VV002 03/03 Q0991 R14L/29//95 AMB NOSIG =
TAF EYSA 100203Z 1003/1012 VRB05KT 1500 BR OVC002 TEMPO 1003/1009 0500 DZ FG BECMG 1009/1011 3000
TAF
TAF EYSA 100203Z 1003/1012 VRB05KT 1500 BR OVC002 TEMPO 1003/1009 0500 DZ FG BECMG 1009/1011 3000 =
SR / SS: 06:41 / 14:00 UTC (EYSA 2018-12-10)

Search

Who's Online

We have 5 guests online

tic logo en